JBU1691 KJFK-KRDU
Flight info
| Callsign | JBU1691 |
|---|---|
| Flight time | 1h 16m |
| Altitude | 36000 |
| Route | WAVEY EMJAY Q167 ZJAAY TAQLE3 |
| Aircraft | A320/M-SDE3FGHIRWY/LB1 |
Departure
| Time | 2026-05-06 23:54 |
|---|---|
| Airport | John F. Kennedy International Airport (KJFK) |
Arrival
| Time | 2026-05-07 01:10 |
|---|---|
| Airport | Raleigh-Durham International Airport (KRDU) |
| Time | Latitude | Longitude | Altitude | Speed | Heading |
|---|---|---|---|---|---|
| 2026-05-06 23:23 | 40.64668 | -73.77545 | 28 ft | 0 kts | 238° |
| 2026-05-06 23:29 | 40.64668 | -73.77544 | 28 ft | 0 kts | 238° |
| 2026-05-06 23:42 | 40.64669 | -73.77543 | 23 ft | 1 kts | 238° |
| 2026-05-06 23:42 | 40.64682 | -73.77516 | 25 ft | 4 kts | 238° |
| 2026-05-06 23:43 | 40.64695 | -73.77487 | 23 ft | 2 kts | 238° |
| 2026-05-06 23:43 | 40.64707 | -73.77466 | 24 ft | 4 kts | 195° |
| 2026-05-06 23:43 | 40.64722 | -73.77473 | 25 ft | 4 kts | 121° |
| 2026-05-06 23:43 | 40.64729 | -73.77489 | 23 ft | 0 kts | 121° |
| 2026-05-06 23:47 | 40.64713 | -73.77439 | 23 ft | 6 kts | 93° |
| 2026-05-06 23:48 | 40.64736 | -73.77396 | 25 ft | 0 kts | 44° |
| 2026-05-06 23:48 | 40.64749 | -73.77381 | 23 ft | 5 kts | 39° |
| 2026-05-06 23:48 | 40.64782 | -73.77350 | 24 ft | 7 kts | 32° |
| 2026-05-06 23:49 | 40.64864 | -73.77331 | 23 ft | 13 kts | 332° |
| 2026-05-06 23:49 | 40.64903 | -73.77384 | 21 ft | 0 kts | 307° |
| 2026-05-06 23:50 | 40.64922 | -73.77414 | 20 ft | 19 kts | 314° |
| 2026-05-06 23:50 | 40.65032 | -73.77432 | 20 ft | 11 kts | 11° |
| 2026-05-06 23:51 | 40.65108 | -73.77367 | 22 ft | 17 kts | 66° |
| 2026-05-06 23:51 | 40.65090 | -73.77217 | 20 ft | 12 kts | 122° |
| 2026-05-06 23:51 | 40.65029 | -73.77091 | 21 ft | 21 kts | 123° |
| 2026-05-06 23:51 | 40.64943 | -73.76908 | 22 ft | 26 kts | 120° |
| 2026-05-06 23:52 | 40.64888 | -73.76739 | 22 ft | 15 kts | 86° |
| 2026-05-06 23:52 | 40.64982 | -73.76615 | 21 ft | 21 kts | 29° |
| 2026-05-06 23:52 | 40.65083 | -73.76521 | 22 ft | 16 kts | 58° |
| 2026-05-06 23:52 | 40.65052 | -73.76398 | 23 ft | 16 kts | 142° |
| 2026-05-06 23:53 | 40.64955 | -73.76404 | 22 ft | 4 kts | 209° |
| 2026-05-06 23:53 | 40.64954 | -73.76405 | 22 ft | 0 kts | 209° |
| 2026-05-06 23:53 | 40.64921 | -73.76430 | 22 ft | 29 kts | 210° |
| 2026-05-06 23:54 | 40.64550 | -73.76720 | 22 ft | 92 kts | 210° |
| 2026-05-06 23:54 | 40.63856 | -73.77248 | 90 ft | 131 kts | 206° |
| 2026-05-06 23:54 | 40.63086 | -73.77892 | 714 ft | 131 kts | 208° |
| 2026-05-06 23:54 | 40.62307 | -73.78522 | 1306 ft | 133 kts | 211° |
| 2026-05-06 23:55 | 40.61467 | -73.79195 | 1688 ft | 152 kts | 213° |
| 2026-05-06 23:55 | 40.60498 | -73.79975 | 1992 ft | 175 kts | 213° |
| 2026-05-06 23:55 | 40.59387 | -73.80870 | 2359 ft | 200 kts | 213° |
| 2026-05-06 23:55 | 40.58135 | -73.81869 | 2867 ft | 221 kts | 211° |
| 2026-05-06 23:56 | 40.56592 | -73.82347 | 3648 ft | 241 kts | 184° |
| 2026-05-06 23:56 | 40.54923 | -73.81667 | 4443 ft | 267 kts | 155° |
| 2026-05-06 23:56 | 40.53517 | -73.79920 | 4916 ft | 292 kts | 130° |
| 2026-05-06 23:56 | 40.52699 | -73.77431 | 5037 ft | 302 kts | 110° |
| 2026-05-06 23:57 | 40.52183 | -73.74758 | 5060 ft | 303 kts | 108° |
| 2026-05-06 23:57 | 40.51705 | -73.72081 | 5064 ft | 303 kts | 107° |
| 2026-05-06 23:57 | 40.51147 | -73.69442 | 5452 ft | 302 kts | 119° |
| 2026-05-06 23:57 | 40.50045 | -73.67190 | 6340 ft | 294 kts | 140° |
| 2026-05-06 23:58 | 40.48509 | -73.65424 | 6842 ft | 294 kts | 147° |
| 2026-05-06 23:58 | 40.46922 | -73.63752 | 7008 ft | 292 kts | 148° |
| 2026-05-06 23:58 | 40.45326 | -73.62101 | 7113 ft | 293 kts | 148° |
| 2026-05-06 23:58 | 40.43719 | -73.60444 | 7902 ft | 294 kts | 147° |
| 2026-05-06 23:59 | 40.42111 | -73.58783 | 8809 ft | 296 kts | 148° |
| 2026-05-06 23:59 | 40.40478 | -73.57091 | 9663 ft | 300 kts | 148° |
| 2026-05-06 23:59 | 40.38828 | -73.55383 | 10316 ft | 310 kts | 146° |
| 2026-05-06 23:59 | 40.37066 | -73.53568 | 10539 ft | 333 kts | 147° |
| 2026-05-07 00:00 | 40.35182 | -73.51631 | 10728 ft | 355 kts | 146° |
| 2026-05-07 00:00 | 40.33214 | -73.49594 | 11239 ft | 365 kts | 146° |
| 2026-05-07 00:00 | 40.31203 | -73.47499 | 11882 ft | 371 kts | 147° |
| 2026-05-07 00:00 | 40.29865 | -73.46106 | 12314 ft | 374 kts | 146° |
| 2026-05-07 00:01 | 40.27112 | -73.43270 | 13210 ft | 378 kts | 150° |
| 2026-05-07 00:01 | 40.24797 | -73.41722 | 13827 ft | 372 kts | 167° |
| 2026-05-07 00:01 | 40.22260 | -73.41183 | 14413 ft | 367 kts | 185° |
| 2026-05-07 00:01 | 40.19771 | -73.41675 | 14986 ft | 362 kts | 202° |
| 2026-05-07 00:02 | 40.17526 | -73.43089 | 15586 ft | 359 kts | 214° |
| 2026-05-07 00:02 | 40.15364 | -73.44779 | 16167 ft | 363 kts | 214° |
| 2026-05-07 00:02 | 40.13190 | -73.46478 | 16746 ft | 366 kts | 214° |
| 2026-05-07 00:02 | 40.10991 | -73.48194 | 17344 ft | 370 kts | 213° |
| 2026-05-07 00:03 | 40.08774 | -73.49921 | 17980 ft | 373 kts | 213° |
| 2026-05-07 00:03 | 40.06531 | -73.51665 | 18558 ft | 377 kts | 213° |
| 2026-05-07 00:03 | 40.04262 | -73.53423 | 19120 ft | 380 kts | 213° |
| 2026-05-07 00:03 | 40.01975 | -73.55191 | 19663 ft | 384 kts | 213° |
| 2026-05-07 00:04 | 39.99664 | -73.56975 | 20208 ft | 388 kts | 213° |
| 2026-05-07 00:04 | 39.97326 | -73.58778 | 20737 ft | 391 kts | 213° |
| 2026-05-07 00:04 | 39.95004 | -73.60571 | 21206 ft | 395 kts | 213° |
| 2026-05-07 00:04 | 39.92606 | -73.62424 | 21688 ft | 398 kts | 213° |
| 2026-05-07 00:05 | 39.90244 | -73.64250 | 22147 ft | 401 kts | 214° |
| 2026-05-07 00:05 | 39.87832 | -73.66112 | 22598 ft | 404 kts | 213° |
| 2026-05-07 00:05 | 39.85408 | -73.67980 | 23079 ft | 406 kts | 213° |
| 2026-05-07 00:05 | 39.82966 | -73.69858 | 23533 ft | 409 kts | 213° |
| 2026-05-07 00:06 | 39.80508 | -73.71746 | 23898 ft | 412 kts | 213° |
| 2026-05-07 00:06 | 39.78031 | -73.73646 | 24260 ft | 414 kts | 213° |
| 2026-05-07 00:06 | 39.75538 | -73.75556 | 24613 ft | 417 kts | 213° |
| 2026-05-07 00:06 | 39.73041 | -73.77472 | 24933 ft | 419 kts | 214° |
| 2026-05-07 00:07 | 39.70520 | -73.79407 | 25273 ft | 422 kts | 213° |
| 2026-05-07 00:07 | 39.67981 | -73.81353 | 25609 ft | 424 kts | 213° |
| 2026-05-07 00:07 | 39.65431 | -73.83299 | 25960 ft | 426 kts | 214° |
| 2026-05-07 00:07 | 39.62870 | -73.85252 | 26298 ft | 429 kts | 213° |
| 2026-05-07 00:08 | 39.60295 | -73.87216 | 26650 ft | 431 kts | 213° |
| 2026-05-07 00:08 | 39.57708 | -73.89190 | 26973 ft | 433 kts | 213° |
| 2026-05-07 00:08 | 39.55094 | -73.91185 | 27312 ft | 436 kts | 214° |
| 2026-05-07 00:08 | 39.52478 | -73.93179 | 27636 ft | 438 kts | 213° |
| 2026-05-07 00:09 | 39.49853 | -73.95176 | 27944 ft | 440 kts | 213° |
| 2026-05-07 00:09 | 39.47196 | -73.97190 | 28257 ft | 442 kts | 213° |
| 2026-05-07 00:09 | 39.44543 | -73.99198 | 28583 ft | 444 kts | 213° |
| 2026-05-07 00:09 | 39.41892 | -74.01245 | 29023 ft | 441 kts | 217° |
| 2026-05-07 00:10 | 39.39470 | -74.03634 | 29467 ft | 437 kts | 223° |
| 2026-05-07 00:10 | 39.37153 | -74.06186 | 29936 ft | 437 kts | 223° |
| 2026-05-07 00:10 | 39.34873 | -74.08765 | 30320 ft | 434 kts | 229° |
| 2026-05-07 00:10 | 39.33600 | -74.10797 | 30562 ft | 430 kts | 240° |
| 2026-05-07 00:11 | 39.32396 | -74.14237 | 30925 ft | 424 kts | 256° |
| 2026-05-07 00:11 | 39.31651 | -74.17913 | 31322 ft | 423 kts | 258° |
| 2026-05-07 00:11 | 39.30936 | -74.21596 | 31744 ft | 421 kts | 258° |
| 2026-05-07 00:11 | 39.30217 | -74.25253 | 31959 ft | 421 kts | 258° |
| 2026-05-07 00:12 | 39.28769 | -74.32560 | 32002 ft | 419 kts | 258° |
| 2026-05-07 00:12 | 39.27325 | -74.39845 | 31993 ft | 418 kts | 258° |
| 2026-05-07 00:13 | 39.25886 | -74.47125 | 31994 ft | 418 kts | 257° |
| 2026-05-07 00:13 | 39.24847 | -74.50641 | 31995 ft | 423 kts | 243° |
| 2026-05-07 00:13 | 39.23011 | -74.53628 | 31995 ft | 431 kts | 226° |
| 2026-05-07 00:14 | 39.20499 | -74.55807 | 31977 ft | 442 kts | 209° |
| 2026-05-07 00:14 | 39.17540 | -74.56954 | 31975 ft | 452 kts | 192° |
| 2026-05-07 00:14 | 39.14362 | -74.56949 | 31977 ft | 463 kts | 175° |
| 2026-05-07 00:14 | 39.11261 | -74.55764 | 31975 ft | 472 kts | 158° |
| 2026-05-07 00:15 | 39.08482 | -74.53470 | 31972 ft | 479 kts | 141° |
| 2026-05-07 00:15 | 39.06274 | -74.50244 | 31977 ft | 483 kts | 124° |
| 2026-05-07 00:15 | 39.02565 | -74.43069 | 31970 ft | 481 kts | 141° |
| 2026-05-07 00:16 | 38.99796 | -74.40772 | 31976 ft | 472 kts | 162° |
| 2026-05-07 00:16 | 38.96657 | -74.39849 | 31973 ft | 460 kts | 183° |
| 2026-05-07 00:16 | 38.93543 | -74.40385 | 31980 ft | 446 kts | 204° |
| 2026-05-07 00:16 | 38.90811 | -74.42050 | 31985 ft | 438 kts | 217° |
| 2026-05-07 00:17 | 38.85931 | -74.46727 | 31984 ft | 431 kts | 233° |
| 2026-05-07 00:17 | 38.84297 | -74.49849 | 31989 ft | 425 kts | 247° |
| 2026-05-07 00:17 | 38.83032 | -74.53274 | 31985 ft | 425 kts | 248° |
| 2026-05-07 00:18 | 38.80534 | -74.60163 | 31989 ft | 427 kts | 248° |
| 2026-05-07 00:18 | 38.78020 | -74.67069 | 31967 ft | 428 kts | 248° |
| 2026-05-07 00:19 | 38.75222 | -74.73826 | 31980 ft | 433 kts | 238° |
| 2026-05-07 00:19 | 38.70985 | -74.79390 | 31992 ft | 442 kts | 223° |
| 2026-05-07 00:20 | 38.66200 | -74.84357 | 31996 ft | 443 kts | 223° |
| 2026-05-07 00:20 | 38.61418 | -74.89329 | 31987 ft | 443 kts | 224° |
| 2026-05-07 00:21 | 38.56638 | -74.94296 | 32001 ft | 443 kts | 224° |
| 2026-05-07 00:21 | 38.51851 | -74.99273 | 32009 ft | 443 kts | 224° |
| 2026-05-07 00:22 | 38.47199 | -75.04404 | 32007 ft | 442 kts | 226° |
| 2026-05-07 00:22 | 38.42425 | -75.09387 | 32010 ft | 444 kts | 221° |
| 2026-05-07 00:23 | 38.37440 | -75.14047 | 32009 ft | 445 kts | 220° |
| 2026-05-07 00:23 | 38.32411 | -75.18667 | 32013 ft | 445 kts | 221° |
| 2026-05-07 00:24 | 38.29915 | -75.21000 | 31842 ft | 443 kts | 221° |
| 2026-05-07 00:24 | 38.27441 | -75.23336 | 31009 ft | 443 kts | 221° |
| 2026-05-07 00:24 | 38.24967 | -75.25690 | 30127 ft | 445 kts | 220° |
| 2026-05-07 00:24 | 38.22492 | -75.28051 | 29102 ft | 446 kts | 220° |
| 2026-05-07 00:25 | 38.20002 | -75.30424 | 28071 ft | 446 kts | 220° |
| 2026-05-07 00:25 | 38.17514 | -75.32784 | 27029 ft | 447 kts | 219° |
| 2026-05-07 00:25 | 38.15020 | -75.35140 | 26009 ft | 447 kts | 219° |
| 2026-05-07 00:25 | 38.12548 | -75.37464 | 25312 ft | 439 kts | 219° |
| 2026-05-07 00:26 | 38.10109 | -75.39749 | 24616 ft | 433 kts | 218° |
| 2026-05-07 00:26 | 38.07689 | -75.42010 | 24186 ft | 430 kts | 218° |
| 2026-05-07 00:26 | 38.05339 | -75.44253 | 24010 ft | 427 kts | 222° |
| 2026-05-07 00:26 | 38.03138 | -75.46801 | 24009 ft | 422 kts | 225° |
| 2026-05-07 00:27 | 38.00990 | -75.49341 | 24025 ft | 422 kts | 225° |
| 2026-05-07 00:27 | 37.98839 | -75.51863 | 24007 ft | 421 kts | 225° |
| 2026-05-07 00:27 | 37.96673 | -75.54392 | 24034 ft | 423 kts | 224° |
| 2026-05-07 00:27 | 37.94505 | -75.56919 | 24037 ft | 423 kts | 224° |
| 2026-05-07 00:28 | 37.92339 | -75.59443 | 24033 ft | 423 kts | 224° |
| 2026-05-07 00:28 | 37.90175 | -75.61966 | 24034 ft | 424 kts | 224° |
| 2026-05-07 00:28 | 37.88033 | -75.64463 | 24031 ft | 423 kts | 224° |
| 2026-05-07 00:28 | 37.85837 | -75.67021 | 24031 ft | 424 kts | 224° |
| 2026-05-07 00:29 | 37.83700 | -75.69510 | 24020 ft | 423 kts | 224° |
| 2026-05-07 00:29 | 37.81534 | -75.72031 | 24020 ft | 423 kts | 224° |
| 2026-05-07 00:30 | 37.75036 | -75.79592 | 24008 ft | 424 kts | 225° |
| 2026-05-07 00:30 | 37.72872 | -75.82109 | 24011 ft | 423 kts | 225° |
| 2026-05-07 00:30 | 37.70699 | -75.84635 | 24011 ft | 423 kts | 225° |
| 2026-05-07 00:30 | 37.68538 | -75.87147 | 24015 ft | 423 kts | 225° |
| 2026-05-07 00:31 | 37.66370 | -75.89661 | 24016 ft | 423 kts | 225° |
| 2026-05-07 00:31 | 37.64200 | -75.92171 | 24013 ft | 423 kts | 225° |
| 2026-05-07 00:31 | 37.62029 | -75.94677 | 24006 ft | 423 kts | 225° |
| 2026-05-07 00:31 | 37.59964 | -75.97303 | 24010 ft | 421 kts | 232° |
| 2026-05-07 00:32 | 37.58165 | -76.00099 | 24016 ft | 401 kts | 233° |
| 2026-05-07 00:32 | 37.56453 | -76.02765 | 24020 ft | 381 kts | 233° |
| 2026-05-07 00:32 | 37.54825 | -76.05295 | 24020 ft | 364 kts | 233° |
| 2026-05-07 00:32 | 37.53256 | -76.07725 | 24011 ft | 350 kts | 233° |
| 2026-05-07 00:33 | 37.51753 | -76.10046 | 24013 ft | 335 kts | 233° |
| 2026-05-07 00:33 | 37.50301 | -76.12289 | 24020 ft | 329 kts | 233° |
| 2026-05-07 00:33 | 37.48862 | -76.14520 | 24027 ft | 328 kts | 233° |
| 2026-05-07 00:33 | 37.47427 | -76.16751 | 24028 ft | 327 kts | 233° |
| 2026-05-07 00:34 | 37.45995 | -76.18973 | 24036 ft | 327 kts | 233° |
| 2026-05-07 00:34 | 37.44562 | -76.21187 | 24034 ft | 327 kts | 233° |
| 2026-05-07 00:34 | 37.43126 | -76.23403 | 24015 ft | 327 kts | 233° |
| 2026-05-07 00:34 | 37.41690 | -76.25621 | 24011 ft | 327 kts | 233° |
| 2026-05-07 00:35 | 37.40254 | -76.27838 | 24011 ft | 327 kts | 233° |
| 2026-05-07 00:35 | 37.38819 | -76.30051 | 24020 ft | 327 kts | 233° |
| 2026-05-07 00:35 | 37.37382 | -76.32267 | 24016 ft | 327 kts | 233° |
| 2026-05-07 00:35 | 37.35941 | -76.34486 | 24017 ft | 328 kts | 233° |
| 2026-05-07 00:36 | 37.34498 | -76.36705 | 24002 ft | 328 kts | 233° |
| 2026-05-07 00:36 | 37.33053 | -76.38929 | 24004 ft | 328 kts | 233° |
| 2026-05-07 00:36 | 37.31612 | -76.41151 | 24007 ft | 329 kts | 233° |
| 2026-05-07 00:36 | 37.30169 | -76.43377 | 24016 ft | 329 kts | 233° |
| 2026-05-07 00:37 | 37.28716 | -76.45607 | 24023 ft | 329 kts | 233° |
| 2026-05-07 00:37 | 37.27267 | -76.47825 | 24016 ft | 329 kts | 233° |
| 2026-05-07 00:37 | 37.25835 | -76.50018 | 24032 ft | 332 kts | 233° |
| 2026-05-07 00:37 | 37.24362 | -76.52299 | 23959 ft | 335 kts | 233° |
| 2026-05-07 00:38 | 37.22922 | -76.54550 | 23802 ft | 326 kts | 233° |
| 2026-05-07 00:38 | 37.21509 | -76.56771 | 23717 ft | 326 kts | 233° |
| 2026-05-07 00:38 | 37.20096 | -76.58991 | 23600 ft | 325 kts | 233° |
| 2026-05-07 00:38 | 37.18685 | -76.61203 | 23470 ft | 325 kts | 233° |
| 2026-05-07 00:39 | 37.17270 | -76.63413 | 23381 ft | 326 kts | 233° |
| 2026-05-07 00:39 | 37.15844 | -76.65628 | 23286 ft | 325 kts | 233° |
| 2026-05-07 00:39 | 37.14424 | -76.67826 | 23181 ft | 325 kts | 233° |
| 2026-05-07 00:39 | 37.13000 | -76.70030 | 23080 ft | 324 kts | 233° |
| 2026-05-07 00:40 | 37.11584 | -76.72228 | 22984 ft | 324 kts | 233° |
| 2026-05-07 00:40 | 37.10170 | -76.74428 | 22881 ft | 324 kts | 233° |
| 2026-05-07 00:40 | 37.08756 | -76.76623 | 22776 ft | 323 kts | 233° |
| 2026-05-07 00:40 | 37.07347 | -76.78807 | 22677 ft | 323 kts | 233° |
| 2026-05-07 00:41 | 37.05933 | -76.80998 | 22579 ft | 323 kts | 233° |
| 2026-05-07 00:41 | 37.04525 | -76.83180 | 22476 ft | 322 kts | 233° |
| 2026-05-07 00:41 | 37.03119 | -76.85362 | 22374 ft | 322 kts | 233° |
| 2026-05-07 00:41 | 37.01713 | -76.87540 | 22275 ft | 322 kts | 233° |
| 2026-05-07 00:42 | 37.00303 | -76.89720 | 22186 ft | 321 kts | 233° |
| 2026-05-07 00:42 | 36.98901 | -76.91888 | 22069 ft | 321 kts | 233° |
| 2026-05-07 00:42 | 36.97492 | -76.94065 | 21920 ft | 323 kts | 234° |
| 2026-05-07 00:42 | 36.96075 | -76.96252 | 21491 ft | 322 kts | 233° |
| 2026-05-07 00:43 | 36.94669 | -76.98414 | 21117 ft | 319 kts | 233° |
| 2026-05-07 00:43 | 36.93273 | -77.00556 | 20757 ft | 317 kts | 233° |
| 2026-05-07 00:43 | 36.91884 | -77.02685 | 20399 ft | 315 kts | 233° |
| 2026-05-07 00:43 | 36.90506 | -77.04804 | 20043 ft | 313 kts | 233° |
| 2026-05-07 00:44 | 36.89133 | -77.06912 | 19682 ft | 312 kts | 233° |
| 2026-05-07 00:44 | 36.87767 | -77.09009 | 19326 ft | 310 kts | 233° |
| 2026-05-07 00:44 | 36.86411 | -77.11091 | 18972 ft | 309 kts | 232° |
| 2026-05-07 00:44 | 36.85555 | -77.12402 | 18747 ft | 308 kts | 232° |
| 2026-05-07 00:45 | 36.84353 | -77.14246 | 18437 ft | 307 kts | 232° |
| 2026-05-07 00:45 | 36.83002 | -77.16305 | 18056 ft | 305 kts | 232° |
| 2026-05-07 00:45 | 36.81662 | -77.18346 | 17697 ft | 303 kts | 232° |
| 2026-05-07 00:45 | 36.80333 | -77.20371 | 17389 ft | 302 kts | 232° |
| 2026-05-07 00:46 | 36.79010 | -77.22393 | 17059 ft | 300 kts | 232° |
| 2026-05-07 00:46 | 36.77691 | -77.24393 | 16888 ft | 298 kts | 232° |
| 2026-05-07 00:46 | 36.76365 | -77.26379 | 16735 ft | 298 kts | 232° |
| 2026-05-07 00:46 | 36.75050 | -77.28341 | 16577 ft | 298 kts | 232° |
| 2026-05-07 00:47 | 36.73723 | -77.30314 | 16413 ft | 297 kts | 231° |
| 2026-05-07 00:47 | 36.72394 | -77.32285 | 16254 ft | 296 kts | 231° |
| 2026-05-07 00:47 | 36.71056 | -77.34270 | 16081 ft | 296 kts | 231° |
| 2026-05-07 00:47 | 36.69751 | -77.36208 | 15923 ft | 295 kts | 231° |
| 2026-05-07 00:48 | 36.68436 | -77.38161 | 15757 ft | 294 kts | 231° |
| 2026-05-07 00:48 | 36.67122 | -77.40112 | 15595 ft | 293 kts | 231° |
| 2026-05-07 00:48 | 36.65811 | -77.42054 | 15430 ft | 293 kts | 231° |
| 2026-05-07 00:48 | 36.64503 | -77.43991 | 15245 ft | 292 kts | 231° |
| 2026-05-07 00:49 | 36.63204 | -77.45918 | 15085 ft | 291 kts | 231° |
| 2026-05-07 00:49 | 36.61903 | -77.47847 | 14919 ft | 290 kts | 231° |
| 2026-05-07 00:49 | 36.60604 | -77.49772 | 14760 ft | 290 kts | 231° |
| 2026-05-07 00:49 | 36.59312 | -77.51688 | 14595 ft | 289 kts | 231° |
| 2026-05-07 00:50 | 36.58017 | -77.53604 | 14430 ft | 288 kts | 231° |
| 2026-05-07 00:50 | 36.56726 | -77.55510 | 14271 ft | 288 kts | 231° |
| 2026-05-07 00:50 | 36.55432 | -77.57418 | 14124 ft | 288 kts | 231° |
| 2026-05-07 00:50 | 36.54144 | -77.59315 | 13958 ft | 288 kts | 231° |
| 2026-05-07 00:51 | 36.52857 | -77.61214 | 13788 ft | 286 kts | 231° |
| 2026-05-07 00:51 | 36.51583 | -77.63098 | 13619 ft | 285 kts | 231° |
| 2026-05-07 00:51 | 36.50307 | -77.64980 | 13457 ft | 284 kts | 231° |
| 2026-05-07 00:51 | 36.49032 | -77.66858 | 13298 ft | 283 kts | 231° |
| 2026-05-07 00:52 | 36.47763 | -77.68723 | 13138 ft | 282 kts | 231° |
| 2026-05-07 00:52 | 36.46498 | -77.70581 | 12983 ft | 282 kts | 231° |
| 2026-05-07 00:52 | 36.45236 | -77.72436 | 12829 ft | 281 kts | 231° |
| 2026-05-07 00:52 | 36.43976 | -77.74291 | 12671 ft | 281 kts | 231° |
| 2026-05-07 00:53 | 36.42719 | -77.76142 | 12517 ft | 280 kts | 231° |
| 2026-05-07 00:53 | 36.41462 | -77.77989 | 12363 ft | 279 kts | 231° |
| 2026-05-07 00:53 | 36.40208 | -77.79829 | 12214 ft | 279 kts | 231° |
| 2026-05-07 00:53 | 36.38958 | -77.81658 | 12046 ft | 278 kts | 231° |
| 2026-05-07 00:54 | 36.37709 | -77.83484 | 11888 ft | 277 kts | 231° |
| 2026-05-07 00:54 | 36.36463 | -77.85308 | 11734 ft | 277 kts | 231° |
| 2026-05-07 00:54 | 36.35220 | -77.87130 | 11584 ft | 277 kts | 231° |
| 2026-05-07 00:54 | 36.33994 | -77.88929 | 11432 ft | 276 kts | 230° |
| 2026-05-07 00:55 | 36.32743 | -77.90768 | 11280 ft | 275 kts | 230° |
| 2026-05-07 00:55 | 36.31509 | -77.92579 | 11126 ft | 275 kts | 230° |
| 2026-05-07 00:55 | 36.30272 | -77.94386 | 10976 ft | 274 kts | 230° |
| 2026-05-07 00:55 | 36.29040 | -77.96179 | 10820 ft | 273 kts | 230° |
| 2026-05-07 00:56 | 36.27811 | -77.97967 | 10669 ft | 272 kts | 230° |
| 2026-05-07 00:56 | 36.26600 | -77.99731 | 10511 ft | 272 kts | 230° |
| 2026-05-07 00:56 | 36.25379 | -78.01514 | 10364 ft | 271 kts | 230° |
| 2026-05-07 00:56 | 36.24161 | -78.03292 | 10205 ft | 270 kts | 230° |
| 2026-05-07 00:57 | 36.23033 | -78.05142 | 10064 ft | 270 kts | 239° |
| 2026-05-07 00:57 | 36.22209 | -78.07239 | 9690 ft | 271 kts | 244° |
| 2026-05-07 00:57 | 36.21430 | -78.09365 | 9335 ft | 270 kts | 244° |
| 2026-05-07 00:57 | 36.20659 | -78.11475 | 8991 ft | 268 kts | 245° |
| 2026-05-07 00:58 | 36.19933 | -78.13579 | 8771 ft | 265 kts | 246° |
| 2026-05-07 00:58 | 36.19235 | -78.15678 | 8545 ft | 263 kts | 246° |
| 2026-05-07 00:58 | 36.18546 | -78.17773 | 8309 ft | 262 kts | 246° |
| 2026-05-07 00:58 | 36.17859 | -78.19856 | 8076 ft | 261 kts | 246° |
| 2026-05-07 00:59 | 36.16714 | -78.23288 | 7691 ft | 258 kts | 246° |
| 2026-05-07 00:59 | 36.16024 | -78.25348 | 7434 ft | 260 kts | 245° |
| 2026-05-07 00:59 | 36.15332 | -78.27411 | 7256 ft | 256 kts | 245° |
| 2026-05-07 01:00 | 36.14825 | -78.29477 | 7135 ft | 247 kts | 255° |
| 2026-05-07 01:00 | 36.14472 | -78.31505 | 7015 ft | 234 kts | 255° |
| 2026-05-07 01:00 | 36.14136 | -78.33412 | 6851 ft | 220 kts | 254° |
| 2026-05-07 01:00 | 36.13811 | -78.35234 | 6588 ft | 216 kts | 253° |
| 2026-05-07 01:01 | 36.13481 | -78.37046 | 6421 ft | 215 kts | 253° |
| 2026-05-07 01:01 | 36.13155 | -78.38848 | 6124 ft | 213 kts | 253° |
| 2026-05-07 01:01 | 36.12833 | -78.40629 | 5813 ft | 212 kts | 253° |
| 2026-05-07 01:01 | 36.12479 | -78.42393 | 5489 ft | 209 kts | 246° |
| 2026-05-07 01:02 | 36.11789 | -78.43950 | 5189 ft | 205 kts | 234° |
| 2026-05-07 01:02 | 36.10991 | -78.45408 | 5104 ft | 204 kts | 235° |
| 2026-05-07 01:02 | 36.10195 | -78.46877 | 5104 ft | 206 kts | 235° |
| 2026-05-07 01:02 | 36.09399 | -78.48352 | 5104 ft | 206 kts | 234° |
| 2026-05-07 01:03 | 36.08608 | -78.49823 | 5103 ft | 206 kts | 235° |
| 2026-05-07 01:03 | 36.07812 | -78.51298 | 5102 ft | 206 kts | 235° |
| 2026-05-07 01:03 | 36.07015 | -78.52768 | 5100 ft | 205 kts | 235° |
| 2026-05-07 01:03 | 36.06220 | -78.54239 | 5098 ft | 206 kts | 235° |
| 2026-05-07 01:04 | 36.05425 | -78.55713 | 5097 ft | 206 kts | 235° |
| 2026-05-07 01:04 | 36.04626 | -78.57168 | 5094 ft | 200 kts | 231° |
| 2026-05-07 01:04 | 36.03707 | -78.58366 | 4999 ft | 189 kts | 225° |
| 2026-05-07 01:04 | 36.02761 | -78.59541 | 4563 ft | 197 kts | 225° |
| 2026-05-07 01:05 | 36.01792 | -78.60744 | 4223 ft | 196 kts | 225° |
| 2026-05-07 01:05 | 36.00859 | -78.61904 | 3953 ft | 185 kts | 225° |
| 2026-05-07 01:05 | 35.99979 | -78.62997 | 3739 ft | 175 kts | 224° |
| 2026-05-07 01:05 | 35.99135 | -78.64045 | 3519 ft | 167 kts | 224° |
| 2026-05-07 01:06 | 35.98336 | -78.65035 | 3290 ft | 159 kts | 223° |
| 2026-05-07 01:06 | 35.97557 | -78.66002 | 3076 ft | 159 kts | 223° |
| 2026-05-07 01:06 | 35.96786 | -78.66958 | 2865 ft | 157 kts | 221° |
| 2026-05-07 01:06 | 35.96025 | -78.67901 | 2663 ft | 154 kts | 221° |
| 2026-05-07 01:07 | 35.95288 | -78.68816 | 2479 ft | 144 kts | 221° |
| 2026-05-07 01:07 | 35.94601 | -78.69668 | 2280 ft | 135 kts | 219° |
| 2026-05-07 01:07 | 35.93936 | -78.70488 | 2086 ft | 133 kts | 216° |
| 2026-05-07 01:07 | 35.93289 | -78.71284 | 1905 ft | 125 kts | 217° |
| 2026-05-07 01:08 | 35.92708 | -78.72010 | 1749 ft | 115 kts | 216° |
| 2026-05-07 01:08 | 35.92149 | -78.72703 | 1594 ft | 114 kts | 219° |
| 2026-05-07 01:08 | 35.91591 | -78.73393 | 1447 ft | 114 kts | 218° |
| 2026-05-07 01:08 | 35.91014 | -78.74105 | 1300 ft | 120 kts | 219° |
| 2026-05-07 01:09 | 35.90420 | -78.74841 | 1142 ft | 122 kts | 219° |
| 2026-05-07 01:09 | 35.89813 | -78.75591 | 994 ft | 124 kts | 220° |
| 2026-05-07 01:09 | 35.89186 | -78.76367 | 838 ft | 132 kts | 222° |
| 2026-05-07 01:09 | 35.88542 | -78.77162 | 665 ft | 131 kts | 219° |
| 2026-05-07 01:10 | 35.87902 | -78.77954 | 484 ft | 130 kts | 220° |
| 2026-05-07 01:10 | 35.87322 | -78.78669 | 439 ft | 91 kts | 225° |
| 2026-05-07 01:10 | 35.87046 | -78.79023 | 431 ft | 29 kts | 239° |
| 2026-05-07 01:10 | 35.87048 | -78.79179 | 429 ft | 9 kts | 251° |
| 2026-05-07 01:11 | 35.87036 | -78.79208 | 425 ft | 1 kts | 248° |
| 2026-05-07 01:11 | 35.87039 | -78.79213 | 432 ft | 1 kts | 294° |
| 2026-05-07 01:11 | 35.87093 | -78.79200 | 435 ft | 5 kts | 45° |
| 2026-05-07 01:11 | 35.87107 | -78.79162 | 435 ft | 4 kts | 65° |
| 2026-05-07 01:12 | 35.87108 | -78.79161 | 435 ft | 0 kts | 65° |
| 2026-05-07 01:12 | 35.87114 | -78.79145 | 426 ft | 10 kts | 63° |
| 2026-05-07 01:12 | 35.87179 | -78.79034 | 433 ft | 17 kts | 45° |
| 2026-05-07 01:13 | 35.87270 | -78.78922 | 435 ft | 20 kts | 44° |
| 2026-05-07 01:13 | 35.87375 | -78.78799 | 430 ft | 21 kts | 43° |
| 2026-05-07 01:13 | 35.87464 | -78.78692 | 425 ft | 18 kts | 44° |
| 2026-05-07 01:13 | 35.87534 | -78.78604 | 428 ft | 0 kts | 45° |
| 2026-05-07 01:14 | 35.87536 | -78.78602 | 426 ft | 0 kts | 45° |
| 2026-05-07 01:15 | 35.87544 | -78.78592 | 435 ft | 7 kts | 45° |
| 2026-05-07 01:15 | 35.87621 | -78.78494 | 425 ft | 23 kts | 46° |
| 2026-05-07 01:15 | 35.87759 | -78.78443 | 430 ft | 23 kts | 330° |
| 2026-05-07 01:15 | 35.87870 | -78.78575 | 430 ft | 20 kts | 315° |
| 2026-05-07 01:16 | 35.87977 | -78.78703 | 420 ft | 19 kts | 316° |
| 2026-05-07 01:16 | 35.88031 | -78.78768 | 413 ft | 0 kts | 316° |
| 2026-05-07 01:16 | 35.88045 | -78.78784 | 412 ft | 7 kts | 316° |
| 2026-05-07 01:16 | 35.88077 | -78.78822 | 408 ft | 0 kts | 315° |
| 2026-05-07 01:17 | 35.88102 | -78.78852 | 403 ft | 12 kts | 315° |
| 2026-05-07 01:17 | 35.88153 | -78.78918 | 390 ft | 12 kts | 313° |
| 2026-05-07 01:17 | 35.88140 | -78.79051 | 392 ft | 19 kts | 232° |
| 2026-05-07 01:17 | 35.88061 | -78.79147 | 392 ft | 14 kts | 224° |
| 2026-05-07 01:18 | 35.88021 | -78.79195 | 392 ft | 0 kts | 225° |
| 2026-05-07 01:18 | 35.88020 | -78.79196 | 392 ft | 1 kts | 225° |
| 2026-05-07 01:18 | 35.87993 | -78.79204 | 392 ft | 7 kts | 180° |
| 2026-05-07 01:19 | 35.87974 | -78.79190 | 392 ft | 4 kts | 141° |
| 2026-05-07 01:19 | 35.87955 | -78.79172 | 392 ft | 2 kts | 143° |
| 2026-05-07 01:19 | 35.87954 | -78.79170 | 392 ft | 0 kts | 143° |